Terminal Aerodrome Forecast
Issued by NWS

Home | Current Version | Previous Version | Text Only | Print | Product List | Glossary On
Versions: 1 2 3 4 5 6 7 8 9 10 11 12 13 14 15 16 17 18 19
000
FTUS45 KTFX 041131
TAFCTB
TAF
KCTB 041131Z 0412/0512 VRB06KT P6SM VCSH SCT005 OVC040
      TEMPO 0412/0416 BKN005
     FM042000 04008KT 5SM -RA BKN010 OVC035
     FM050500 04005KT 3SM -SHRA BR BKN005 OVC015=

USA.gov is the U.S. government's official web portal to all federal, state and local government web resources and services.